sensor_id;sensor_type;location;lat;lon;timestamp;P1;durP1;ratioP1;P2;durP2;ratioP2
13331;SDS011;6735;51.456;12.626;2023-03-14T00:02:21;2.57;;;1.70;;
13331;SDS011;6735;51.456;12.626;2023-03-14T00:04:47;1.80;;;1.70;;
13331;SDS011;6735;51.456;12.626;2023-03-14T00:07:13;2.37;;;1.87;;
13331;SDS011;6735;51.456;12.626;2023-03-14T00:09:38;1.80;;;1.70;;
13331;SDS011;6735;51.456;12.626;2023-03-14T00:12:04;2.23;;;1.83;;
13331;SDS011;6735;51.456;12.626;2023-03-14T00:14:32;2.30;;;1.90;;
13331;SDS011;6735;51.456;12.626;2023-03-14T00:16:58;3.23;;;1.93;;
13331;SDS011;6735;51.456;12.626;2023-03-14T00:19:23;2.27;;;2.07;;
13331;SDS011;6735;51.456;12.626;2023-03-14T00:21:49;2.60;;;1.90;;
13331;SDS011;6735;51.456;12.626;2023-03-14T00:24:14;1.93;;;1.83;;
13331;SDS011;6735;51.456;12.626;2023-03-14T00:26:40;2.43;;;2.00;;
13331;SDS011;6735;51.456;12.626;2023-03-14T00:29:05;1.80;;;1.70;;
13331;SDS011;6735;51.456;12.626;2023-03-14T00:31:31;2.10;;;2.00;;
13331;SDS011;6735;51.456;12.626;2023-03-14T00:33:56;1.93;;;1.83;;
13331;SDS011;6735;51.456;12.626;2023-03-14T00:36:22;1.70;;;1.60;;
13331;SDS011;6735;51.456;12.626;2023-03-14T00:38:49;1.93;;;1.73;;
13331;SDS011;6735;51.456;12.626;2023-03-14T00:41:16;2.00;;;1.80;;
13331;SDS011;6735;51.456;12.626;2023-03-14T00:43:43;1.90;;;1.77;;
13331;SDS011;6735;51.456;12.626;2023-03-14T00:46:09;1.80;;;1.70;;
13331;SDS011;6735;51.456;12.626;2023-03-14T00:48:35;1.70;;;1.60;;
13331;SDS011;6735;51.456;12.626;2023-03-14T00:51:01;2.00;;;1.80;;
13331;SDS011;6735;51.456;12.626;2023-03-14T00:53:28;2.77;;;1.60;;
13331;SDS011;6735;51.456;12.626;2023-03-14T00:55:53;1.70;;;1.60;;
13331;SDS011;6735;51.456;12.626;2023-03-14T00:58:19;1.40;;;1.40;;
13331;SDS011;6735;51.456;12.626;2023-03-14T01:00:45;1.73;;;1.40;;
13331;SDS011;6735;51.456;12.626;2023-03-14T01:03:11;1.90;;;1.80;;
13331;SDS011;6735;51.456;12.626;2023-03-14T01:05:38;1.43;;;1.33;;
13331;SDS011;6735;51.456;12.626;2023-03-14T01:08:04;1.70;;;1.60;;
13331;SDS011;6735;51.456;12.626;2023-03-14T01:10:31;2.40;;;1.60;;
13331;SDS011;6735;51.456;12.626;2023-03-14T01:12:57;1.70;;;1.60;;
13331;SDS011;6735;51.456;12.626;2023-03-14T01:15:22;1.67;;;1.57;;
13331;SDS011;6735;51.456;12.626;2023-03-14T01:17:48;1.80;;;1.70;;
13331;SDS011;6735;51.456;12.626;2023-03-14T01:20:14;1.70;;;1.60;;
13331;SDS011;6735;51.456;12.626;2023-03-14T01:22:40;2.30;;;1.40;;
13331;SDS011;6735;51.456;12.626;2023-03-14T01:25:08;2.13;;;1.50;;
13331;SDS011;6735;51.456;12.626;2023-03-14T01:27:35;2.57;;;1.60;;
13331;SDS011;6735;51.456;12.626;2023-03-14T01:30:00;2.07;;;1.60;;
13331;SDS011;6735;51.456;12.626;2023-03-14T01:32:27;1.70;;;1.60;;
13331;SDS011;6735;51.456;12.626;2023-03-14T01:34:52;2.30;;;1.63;;
13331;SDS011;6735;51.456;12.626;2023-03-14T01:37:18;2.10;;;1.30;;
13331;SDS011;6735;51.456;12.626;2023-03-14T01:39:43;1.60;;;1.50;;
13331;SDS011;6735;51.456;12.626;2023-03-14T01:42:08;1.30;;;1.30;;
13331;SDS011;6735;51.456;12.626;2023-03-14T01:44:54;2.13;;;1.40;;
13331;SDS011;6735;51.456;12.626;2023-03-14T01:47:21;1.40;;;1.30;;
13331;SDS011;6735;51.456;12.626;2023-03-14T01:49:51;1.27;;;1.23;;
13331;SDS011;6735;51.456;12.626;2023-03-14T01:52:43;3.07;;;1.37;;
13331;SDS011;6735;51.456;12.626;2023-03-14T01:55:13;1.60;;;1.50;;
13331;SDS011;6735;51.456;12.626;2023-03-14T01:57:43;1.43;;;1.30;;
13331;SDS011;6735;51.456;12.626;2023-03-14T02:00:14;4.63;;;1.60;;
13331;SDS011;6735;51.456;12.626;2023-03-14T02:02:44;1.20;;;1.10;;
13331;SDS011;6735;51.456;12.626;2023-03-14T02:05:12;1.47;;;1.37;;
13331;SDS011;6735;51.456;12.626;2023-03-14T02:07:42;1.07;;;1.07;;
13331;SDS011;6735;51.456;12.626;2023-03-14T02:10:14;1.40;;;1.30;;
13331;SDS011;6735;51.456;12.626;2023-03-14T02:12:43;2.60;;;1.43;;
13331;SDS011;6735;51.456;12.626;2023-03-14T02:15:13;2.20;;;1.30;;
13331;SDS011;6735;51.456;12.626;2023-03-14T02:17:40;1.47;;;1.37;;
13331;SDS011;6735;51.456;12.626;2023-03-14T02:22:36;1.37;;;1.30;;
13331;SDS011;6735;51.456;12.626;2023-03-14T02:27:39;1.13;;;1.13;;
13331;SDS011;6735;51.456;12.626;2023-03-14T02:30:06;1.80;;;1.70;;
13331;SDS011;6735;51.456;12.626;2023-03-14T02:32:36;1.40;;;1.30;;
13331;SDS011;6735;51.456;12.626;2023-03-14T02:35:06;1.87;;;1.30;;
13331;SDS011;6735;51.456;12.626;2023-03-14T02:37:41;1.67;;;1.43;;
13331;SDS011;6735;51.456;12.626;2023-03-14T02:40:12;2.37;;;1.40;;
13331;SDS011;6735;51.456;12.626;2023-03-14T02:42:38;1.57;;;1.47;;
13331;SDS011;6735;51.456;12.626;2023-03-14T02:47:39;1.80;;;1.33;;
13331;SDS011;6735;51.456;12.626;2023-03-14T02:50:15;1.87;;;1.47;;
13331;SDS011;6735;51.456;12.626;2023-03-14T02:52:44;1.50;;;1.40;;
13331;SDS011;6735;51.456;12.626;2023-03-14T02:55:10;1.00;;;1.00;;
13331;SDS011;6735;51.456;12.626;2023-03-14T02:57:35;1.43;;;1.10;;
13331;SDS011;6735;51.456;12.626;2023-03-14T03:00:01;1.27;;;1.17;;
13331;SDS011;6735;51.456;12.626;2023-03-14T03:02:31;1.50;;;1.40;;
13331;SDS011;6735;51.456;12.626;2023-03-14T03:04:56;1.13;;;1.13;;
13331;SDS011;6735;51.456;12.626;2023-03-14T03:07:22;1.10;;;1.10;;
13331;SDS011;6735;51.456;12.626;2023-03-14T03:09:48;2.03;;;1.57;;
13331;SDS011;6735;51.456;12.626;2023-03-14T03:12:14;1.67;;;1.20;;
13331;SDS011;6735;51.456;12.626;2023-03-14T03:14:40;1.63;;;1.23;;
13331;SDS011;6735;51.456;12.626;2023-03-14T03:17:05;1.50;;;1.30;;
13331;SDS011;6735;51.456;12.626;2023-03-14T03:19:31;2.07;;;1.40;;
13331;SDS011;6735;51.456;12.626;2023-03-14T03:21:57;1.47;;;1.30;;
13331;SDS011;6735;51.456;12.626;2023-03-14T03:24:23;1.37;;;1.10;;
13331;SDS011;6735;51.456;12.626;2023-03-14T03:26:50;1.57;;;1.47;;
13331;SDS011;6735;51.456;12.626;2023-03-14T03:29:15;1.30;;;1.20;;
13331;SDS011;6735;51.456;12.626;2023-03-14T03:31:41;2.63;;;1.60;;
13331;SDS011;6735;51.456;12.626;2023-03-14T03:34:06;1.70;;;1.30;;
13331;SDS011;6735;51.456;12.626;2023-03-14T03:36:32;1.23;;;1.23;;
13331;SDS011;6735;51.456;12.626;2023-03-14T03:38:58;1.30;;;1.13;;
13331;SDS011;6735;51.456;12.626;2023-03-14T03:41:24;1.60;;;1.40;;
13331;SDS011;6735;51.456;12.626;2023-03-14T03:43:49;1.57;;;1.27;;
13331;SDS011;6735;51.456;12.626;2023-03-14T03:46:15;2.97;;;1.30;;
13331;SDS011;6735;51.456;12.626;2023-03-14T03:48:40;1.60;;;1.50;;
13331;SDS011;6735;51.456;12.626;2023-03-14T03:51:06;1.90;;;1.40;;
13331;SDS011;6735;51.456;12.626;2023-03-14T03:53:32;2.60;;;1.40;;
13331;SDS011;6735;51.456;12.626;2023-03-14T03:55:57;1.70;;;1.50;;
13331;SDS011;6735;51.456;12.626;2023-03-14T03:58:23;3.37;;;1.90;;
13331;SDS011;6735;51.456;12.626;2023-03-14T04:00:48;2.40;;;1.50;;
13331;SDS011;6735;51.456;12.626;2023-03-14T04:03:14;1.50;;;1.40;;
13331;SDS011;6735;51.456;12.626;2023-03-14T04:05:39;2.67;;;2.00;;
13331;SDS011;6735;51.456;12.626;2023-03-14T04:08:04;3.27;;;1.60;;
13331;SDS011;6735;51.456;12.626;2023-03-14T04:10:33;2.30;;;1.47;;
13331;SDS011;6735;51.456;12.626;2023-03-14T04:12:59;3.60;;;1.53;;
13331;SDS011;6735;51.456;12.626;2023-03-14T04:15:25;2.40;;;1.60;;
13331;SDS011;6735;51.456;12.626;2023-03-14T04:17:50;2.73;;;1.57;;
13331;SDS011;6735;51.456;12.626;2023-03-14T04:20:16;3.23;;;1.47;;
13331;SDS011;6735;51.456;12.626;2023-03-14T04:22:41;1.77;;;1.33;;
13331;SDS011;6735;51.456;12.626;2023-03-14T04:25:07;1.57;;;1.47;;
13331;SDS011;6735;51.456;12.626;2023-03-14T04:27:33;4.30;;;1.40;;
13331;SDS011;6735;51.456;12.626;2023-03-14T04:29:58;2.37;;;1.70;;
13331;SDS011;6735;51.456;12.626;2023-03-14T04:32:23;1.50;;;1.40;;
13331;SDS011;6735;51.456;12.626;2023-03-14T04:34:49;2.87;;;1.60;;
13331;SDS011;6735;51.456;12.626;2023-03-14T04:37:14;4.20;;;1.50;;
13331;SDS011;6735;51.456;12.626;2023-03-14T04:39:40;3.37;;;1.70;;
13331;SDS011;6735;51.456;12.626;2023-03-14T04:42:05;3.53;;;1.60;;
13331;SDS011;6735;51.456;12.626;2023-03-14T04:44:31;2.93;;;1.83;;
13331;SDS011;6735;51.456;12.626;2023-03-14T04:46:56;3.30;;;2.00;;
13331;SDS011;6735;51.456;12.626;2023-03-14T04:49:22;2.17;;;1.60;;
13331;SDS011;6735;51.456;12.626;2023-03-14T04:51:48;2.73;;;1.20;;
13331;SDS011;6735;51.456;12.626;2023-03-14T04:54:15;2.17;;;1.40;;
13331;SDS011;6735;51.456;12.626;2023-03-14T04:56:41;1.77;;;1.50;;
13331;SDS011;6735;51.456;12.626;2023-03-14T04:59:06;2.60;;;1.70;;
13331;SDS011;6735;51.456;12.626;2023-03-14T05:01:33;1.87;;;1.70;;
13331;SDS011;6735;51.456;12.626;2023-03-14T05:03:58;1.97;;;1.60;;
13331;SDS011;6735;51.456;12.626;2023-03-14T05:06:24;2.83;;;1.80;;
13331;SDS011;6735;51.456;12.626;2023-03-14T05:08:49;3.30;;;1.87;;
13331;SDS011;6735;51.456;12.626;2023-03-14T05:11:15;2.97;;;2.60;;
13331;SDS011;6735;51.456;12.626;2023-03-14T05:13:40;1.80;;;1.70;;
13331;SDS011;6735;51.456;12.626;2023-03-14T05:16:06;4.60;;;1.80;;
13331;SDS011;6735;51.456;12.626;2023-03-14T05:18:33;7.93;;;5.20;;
13331;SDS011;6735;51.456;12.626;2023-03-14T05:20:59;2.27;;;1.80;;
13331;SDS011;6735;51.456;12.626;2023-03-14T05:23:24;4.70;;;2.13;;
13331;SDS011;6735;51.456;12.626;2023-03-14T05:25:50;1.67;;;1.47;;
13331;SDS011;6735;51.456;12.626;2023-03-14T05:28:15;2.07;;;1.73;;
13331;SDS011;6735;51.456;12.626;2023-03-14T05:30:41;4.23;;;1.90;;
13331;SDS011;6735;51.456;12.626;2023-03-14T05:33:06;3.17;;;1.73;;
13331;SDS011;6735;51.456;12.626;2023-03-14T05:35:31;3.20;;;1.87;;
13331;SDS011;6735;51.456;12.626;2023-03-14T05:37:58;2.40;;;1.70;;
13331;SDS011;6735;51.456;12.626;2023-03-14T05:40:24;4.67;;;1.60;;
13331;SDS011;6735;51.456;12.626;2023-03-14T05:42:49;2.77;;;1.40;;
13331;SDS011;6735;51.456;12.626;2023-03-14T05:45:15;1.90;;;1.60;;
13331;SDS011;6735;51.456;12.626;2023-03-14T05:47:40;2.57;;;1.50;;
13331;SDS011;6735;51.456;12.626;2023-03-14T05:50:06;2.27;;;1.60;;
13331;SDS011;6735;51.456;12.626;2023-03-14T05:52:32;2.67;;;1.70;;
13331;SDS011;6735;51.456;12.626;2023-03-14T05:54:57;3.23;;;1.73;;
13331;SDS011;6735;51.456;12.626;2023-03-14T05:57:23;4.33;;;2.00;;
13331;SDS011;6735;51.456;12.626;2023-03-14T05:59:48;2.73;;;1.80;;
13331;SDS011;6735;51.456;12.626;2023-03-14T06:02:14;3.83;;;1.77;;
13331;SDS011;6735;51.456;12.626;2023-03-14T06:04:39;3.87;;;1.90;;
13331;SDS011;6735;51.456;12.626;2023-03-14T06:07:04;3.03;;;1.53;;
13331;SDS011;6735;51.456;12.626;2023-03-14T06:09:30;4.60;;;2.17;;
13331;SDS011;6735;51.456;12.626;2023-03-14T06:11:55;3.70;;;2.20;;
13331;SDS011;6735;51.456;12.626;2023-03-14T06:14:21;5.53;;;2.10;;
13331;SDS011;6735;51.456;12.626;2023-03-14T06:16:46;4.70;;;1.83;;
13331;SDS011;6735;51.456;12.626;2023-03-14T06:19:13;3.90;;;1.70;;
13331;SDS011;6735;51.456;12.626;2023-03-14T06:21:39;4.50;;;1.80;;
13331;SDS011;6735;51.456;12.626;2023-03-14T06:24:05;3.50;;;2.20;;
13331;SDS011;6735;51.456;12.626;2023-03-14T06:26:30;5.20;;;2.27;;
13331;SDS011;6735;51.456;12.626;2023-03-14T06:28:56;6.80;;;2.30;;
13331;SDS011;6735;51.456;12.626;2023-03-14T06:31:21;3.73;;;2.30;;
13331;SDS011;6735;51.456;12.626;2023-03-14T06:33:47;5.73;;;2.03;;
13331;SDS011;6735;51.456;12.626;2023-03-14T06:36:12;3.93;;;2.23;;
13331;SDS011;6735;51.456;12.626;2023-03-14T06:38:38;4.10;;;2.13;;
13331;SDS011;6735;51.456;12.626;2023-03-14T06:41:07;5.93;;;2.40;;
13331;SDS011;6735;51.456;12.626;2023-03-14T06:43:33;3.37;;;2.30;;
13331;SDS011;6735;51.456;12.626;2023-03-14T06:45:58;4.37;;;2.20;;
13331;SDS011;6735;51.456;12.626;2023-03-14T06:48:24;6.20;;;2.50;;
13331;SDS011;6735;51.456;12.626;2023-03-14T06:50:49;6.57;;;2.10;;
13331;SDS011;6735;51.456;12.626;2023-03-14T06:53:15;6.30;;;2.27;;
13331;SDS011;6735;51.456;12.626;2023-03-14T06:55:40;5.17;;;2.23;;
13331;SDS011;6735;51.456;12.626;2023-03-14T06:58:06;6.20;;;2.20;;
13331;SDS011;6735;51.456;12.626;2023-03-14T07:00:33;6.63;;;2.67;;
13331;SDS011;6735;51.456;12.626;2023-03-14T07:02:58;4.93;;;2.50;;
13331;SDS011;6735;51.456;12.626;2023-03-14T07:05:24;5.73;;;2.53;;
13331;SDS011;6735;51.456;12.626;2023-03-14T07:07:49;4.63;;;2.40;;
13331;SDS011;6735;51.456;12.626;2023-03-14T07:10:15;4.97;;;2.30;;
13331;SDS011;6735;51.456;12.626;2023-03-14T07:12:41;5.27;;;2.20;;
13331;SDS011;6735;51.456;12.626;2023-03-14T07:15:06;3.00;;;2.00;;
13331;SDS011;6735;51.456;12.626;2023-03-14T07:17:32;5.93;;;2.23;;
13331;SDS011;6735;51.456;12.626;2023-03-14T07:19:58;6.87;;;2.40;;
13331;SDS011;6735;51.456;12.626;2023-03-14T07:22:24;4.67;;;2.17;;
13331;SDS011;6735;51.456;12.626;2023-03-14T07:24:49;7.00;;;2.07;;
13331;SDS011;6735;51.456;12.626;2023-03-14T07:27:15;3.73;;;1.77;;
13331;SDS011;6735;51.456;12.626;2023-03-14T07:29:40;3.73;;;2.00;;
13331;SDS011;6735;51.456;12.626;2023-03-14T07:32:06;3.00;;;1.80;;
13331;SDS011;6735;51.456;12.626;2023-03-14T07:34:32;6.03;;;2.30;;
13331;SDS011;6735;51.456;12.626;2023-03-14T07:36:58;3.13;;;2.00;;
13331;SDS011;6735;51.456;12.626;2023-03-14T07:39:23;3.23;;;1.80;;
13331;SDS011;6735;51.456;12.626;2023-03-14T07:41:49;3.37;;;1.87;;
13331;SDS011;6735;51.456;12.626;2023-03-14T07:44:14;3.73;;;1.73;;
13331;SDS011;6735;51.456;12.626;2023-03-14T07:46:40;2.73;;;1.80;;
13331;SDS011;6735;51.456;12.626;2023-03-14T07:49:05;3.83;;;1.70;;
13331;SDS011;6735;51.456;12.626;2023-03-14T07:51:31;3.70;;;1.80;;
13331;SDS011;6735;51.456;12.626;2023-03-14T07:53:56;3.83;;;1.70;;
13331;SDS011;6735;51.456;12.626;2023-03-14T07:56:22;3.10;;;1.60;;
13331;SDS011;6735;51.456;12.626;2023-03-14T07:58:47;2.27;;;1.70;;
13331;SDS011;6735;51.456;12.626;2023-03-14T08:01:13;3.27;;;1.80;;
13331;SDS011;6735;51.456;12.626;2023-03-14T08:03:39;6.27;;;2.07;;
13331;SDS011;6735;51.456;12.626;2023-03-14T08:06:04;2.80;;;1.77;;
13331;SDS011;6735;51.456;12.626;2023-03-14T08:08:30;4.43;;;1.90;;
13331;SDS011;6735;51.456;12.626;2023-03-14T08:10:55;3.07;;;1.50;;
13331;SDS011;6735;51.456;12.626;2023-03-14T08:13:21;2.77;;;1.40;;
13331;SDS011;6735;51.456;12.626;2023-03-14T08:15:48;6.60;;;2.00;;
13331;SDS011;6735;51.456;12.626;2023-03-14T08:18:14;2.67;;;1.30;;
13331;SDS011;6735;51.456;12.626;2023-03-14T08:20:39;5.53;;;1.90;;
13331;SDS011;6735;51.456;12.626;2023-03-14T08:23:05;5.47;;;1.77;;
13331;SDS011;6735;51.456;12.626;2023-03-14T08:25:30;2.03;;;1.30;;
13331;SDS011;6735;51.456;12.626;2023-03-14T08:27:57;2.77;;;1.70;;
13331;SDS011;6735;51.456;12.626;2023-03-14T08:30:22;3.63;;;1.47;;
13331;SDS011;6735;51.456;12.626;2023-03-14T08:32:48;2.37;;;1.60;;
13331;SDS011;6735;51.456;12.626;2023-03-14T08:35:14;4.80;;;1.70;;
13331;SDS011;6735;51.456;12.626;2023-03-14T08:37:40;1.60;;;1.50;;
13331;SDS011;6735;51.456;12.626;2023-03-14T08:40:06;2.43;;;1.60;;
13331;SDS011;6735;51.456;12.626;2023-03-14T08:42:34;2.53;;;1.70;;
13331;SDS011;6735;51.456;12.626;2023-03-14T08:45:03;3.07;;;1.53;;
13331;SDS011;6735;51.456;12.626;2023-03-14T08:47:29;1.47;;;1.27;;
13331;SDS011;6735;51.456;12.626;2023-03-14T08:49:55;1.83;;;1.50;;
13331;SDS011;6735;51.456;12.626;2023-03-14T08:52:20;2.33;;;1.50;;
13331;SDS011;6735;51.456;12.626;2023-03-14T08:54:46;2.43;;;1.50;;
13331;SDS011;6735;51.456;12.626;2023-03-14T08:57:11;4.53;;;1.80;;
13331;SDS011;6735;51.456;12.626;2023-03-14T08:59:37;3.67;;;1.70;;
13331;SDS011;6735;51.456;12.626;2023-03-14T09:02:02;2.50;;;1.53;;
13331;SDS011;6735;51.456;12.626;2023-03-14T09:04:29;2.97;;;1.53;;
13331;SDS011;6735;51.456;12.626;2023-03-14T09:06:55;6.10;;;1.77;;
13331;SDS011;6735;51.456;12.626;2023-03-14T09:09:22;4.13;;;1.77;;
13331;SDS011;6735;51.456;12.626;2023-03-14T09:11:48;2.73;;;1.30;;
13331;SDS011;6735;51.456;12.626;2023-03-14T09:14:14;4.27;;;1.37;;
13331;SDS011;6735;51.456;12.626;2023-03-14T09:16:40;3.57;;;1.40;;
13331;SDS011;6735;51.456;12.626;2023-03-14T09:19:05;3.33;;;1.50;;
13331;SDS011;6735;51.456;12.626;2023-03-14T09:21:31;1.60;;;1.30;;
13331;SDS011;6735;51.456;12.626;2023-03-14T09:23:56;5.27;;;1.40;;
13331;SDS011;6735;51.456;12.626;2023-03-14T09:26:22;5.27;;;1.50;;
13331;SDS011;6735;51.456;12.626;2023-03-14T09:28:47;7.93;;;2.00;;
13331;SDS011;6735;51.456;12.626;2023-03-14T09:31:13;7.60;;;2.30;;
13331;SDS011;6735;51.456;12.626;2023-03-14T09:33:39;3.50;;;1.30;;
13331;SDS011;6735;51.456;12.626;2023-03-14T09:36:05;4.00;;;1.63;;
13331;SDS011;6735;51.456;12.626;2023-03-14T09:38:32;4.50;;;1.70;;
13331;SDS011;6735;51.456;12.626;2023-03-14T09:40:58;2.60;;;1.53;;
13331;SDS011;6735;51.456;12.626;2023-03-14T09:43:25;2.60;;;1.80;;
13331;SDS011;6735;51.456;12.626;2023-03-14T09:45:53;3.20;;;2.60;;
13331;SDS011;6735;51.456;12.626;2023-03-14T09:48:22;4.77;;;2.00;;
13331;SDS011;6735;51.456;12.626;2023-03-14T09:50:53;2.77;;;2.00;;
13331;SDS011;6735;51.456;12.626;2023-03-14T09:53:21;1.50;;;1.40;;
13331;SDS011;6735;51.456;12.626;2023-03-14T09:55:54;2.83;;;1.20;;
13331;SDS011;6735;51.456;12.626;2023-03-14T09:58:23;2.30;;;1.30;;
13331;SDS011;6735;51.456;12.626;2023-03-14T10:00:49;3.90;;;1.83;;
13331;SDS011;6735;51.456;12.626;2023-03-14T10:03:29;3.07;;;1.70;;
13331;SDS011;6735;51.456;12.626;2023-03-14T10:05:57;2.83;;;1.50;;
13331;SDS011;6735;51.456;12.626;2023-03-14T10:08:23;1.93;;;1.33;;
13331;SDS011;6735;51.456;12.626;2023-03-14T10:10:49;1.67;;;1.20;;
13331;SDS011;6735;51.456;12.626;2023-03-14T10:13:25;2.87;;;1.30;;
13331;SDS011;6735;51.456;12.626;2023-03-14T10:15:58;2.17;;;1.07;;
13331;SDS011;6735;51.456;12.626;2023-03-14T10:18:25;2.20;;;1.20;;
13331;SDS011;6735;51.456;12.626;2023-03-14T10:21:28;6.90;;;1.87;;
13331;SDS011;6735;51.456;12.626;2023-03-14T10:23:52;3.13;;;1.30;;
13331;SDS011;6735;51.456;12.626;2023-03-14T10:26:18;2.83;;;1.27;;
13331;SDS011;6735;51.456;12.626;2023-03-14T10:28:51;3.73;;;1.30;;
13331;SDS011;6735;51.456;12.626;2023-03-14T10:31:18;2.63;;;1.40;;
13331;SDS011;6735;51.456;12.626;2023-03-14T10:34:02;1.77;;;1.37;;
13331;SDS011;6735;51.456;12.626;2023-03-14T10:36:29;2.93;;;1.20;;
13331;SDS011;6735;51.456;12.626;2023-03-14T10:38:57;4.27;;;1.90;;
13331;SDS011;6735;51.456;12.626;2023-03-14T10:41:40;4.57;;;1.70;;
13331;SDS011;6735;51.456;12.626;2023-03-14T10:44:18;2.30;;;2.10;;
13331;SDS011;6735;51.456;12.626;2023-03-14T10:46:55;2.77;;;1.70;;
13331;SDS011;6735;51.456;12.626;2023-03-14T10:49:27;1.60;;;1.50;;
13331;SDS011;6735;51.456;12.626;2023-03-14T10:51:54;2.10;;;1.43;;
13331;SDS011;6735;51.456;12.626;2023-03-14T10:54:21;3.23;;;2.27;;
13331;SDS011;6735;51.456;12.626;2023-03-14T10:56:58;2.00;;;1.60;;
13331;SDS011;6735;51.456;12.626;2023-03-14T10:59:27;2.10;;;1.90;;
13331;SDS011;6735;51.456;12.626;2023-03-14T11:02:01;1.90;;;1.43;;
13331;SDS011;6735;51.456;12.626;2023-03-14T11:07:14;1.17;;;0.90;;
13331;SDS011;6735;51.456;12.626;2023-03-14T11:09:50;1.37;;;1.20;;
13331;SDS011;6735;51.456;12.626;2023-03-14T11:12:36;2.27;;;0.97;;
13331;SDS011;6735;51.456;12.626;2023-03-14T11:15:15;1.70;;;1.03;;
13331;SDS011;6735;51.456;12.626;2023-03-14T11:20:52;1.17;;;0.70;;
13331;SDS011;6735;51.456;12.626;2023-03-14T11:26:01;2.43;;;0.97;;
13331;SDS011;6735;51.456;12.626;2023-03-14T11:28:53;1.10;;;0.90;;
13331;SDS011;6735;51.456;12.626;2023-03-14T11:31:27;1.90;;;0.90;;
13331;SDS011;6735;51.456;12.626;2023-03-14T11:34:01;1.30;;;1.13;;
13331;SDS011;6735;51.456;12.626;2023-03-14T11:36:41;1.37;;;0.87;;
13331;SDS011;6735;51.456;12.626;2023-03-14T11:39:15;1.40;;;1.07;;
13331;SDS011;6735;51.456;12.626;2023-03-14T11:41:46;2.27;;;1.10;;
13331;SDS011;6735;51.456;12.626;2023-03-14T11:44:26;1.93;;;1.23;;
13331;SDS011;6735;51.456;12.626;2023-03-14T11:49:38;2.07;;;1.10;;
13331;SDS011;6735;51.456;12.626;2023-03-14T11:52:16;2.20;;;1.10;;
13331;SDS011;6735;51.456;12.626;2023-03-14T11:57:17;1.13;;;0.97;;
13331;SDS011;6735;51.456;12.626;2023-03-14T11:59:50;1.53;;;1.07;;
13331;SDS011;6735;51.456;12.626;2023-03-14T12:10:53;1.77;;;1.30;;
13331;SDS011;6735;51.456;12.626;2023-03-14T12:13:23;1.50;;;1.10;;
13331;SDS011;6735;51.456;12.626;2023-03-14T12:16:04;0.80;;;0.80;;
13331;SDS011;6735;51.456;12.626;2023-03-14T12:18:33;2.27;;;1.20;;
13331;SDS011;6735;51.456;12.626;2023-03-14T12:21:05;0.77;;;0.77;;
13331;SDS011;6735;51.456;12.626;2023-03-14T12:23:45;2.23;;;1.00;;
13331;SDS011;6735;51.456;12.626;2023-03-14T12:26:20;1.67;;;1.03;;
13331;SDS011;6735;51.456;12.626;2023-03-14T12:42:20;2.40;;;1.73;;
13331;SDS011;6735;51.456;12.626;2023-03-14T12:44:53;1.53;;;1.07;;
13331;SDS011;6735;51.456;12.626;2023-03-14T12:47:52;3.57;;;1.00;;
13331;SDS011;6735;51.456;12.626;2023-03-14T12:50:20;1.20;;;1.10;;
13331;SDS011;6735;51.456;12.626;2023-03-14T12:56:40;2.90;;;1.30;;
13331;SDS011;6735;51.456;12.626;2023-03-14T12:59:14;2.70;;;1.10;;
13331;SDS011;6735;51.456;12.626;2023-03-14T13:01:55;5.13;;;1.30;;
13331;SDS011;6735;51.456;12.626;2023-03-14T13:04:34;1.73;;;1.40;;
13331;SDS011;6735;51.456;12.626;2023-03-14T13:07:12;1.60;;;1.50;;
13331;SDS011;6735;51.456;12.626;2023-03-14T13:09:54;1.63;;;1.00;;
13331;SDS011;6735;51.456;12.626;2023-03-14T13:12:27;0.90;;;0.90;;
13331;SDS011;6735;51.456;12.626;2023-03-14T13:14:58;1.33;;;1.00;;
13331;SDS011;6735;51.456;12.626;2023-03-14T13:17:32;1.23;;;0.90;;
13331;SDS011;6735;51.456;12.626;2023-03-14T13:20:00;2.70;;;1.43;;
13331;SDS011;6735;51.456;12.626;2023-03-14T13:22:34;1.93;;;0.90;;
13331;SDS011;6735;51.456;12.626;2023-03-14T13:25:03;1.43;;;1.00;;
13331;SDS011;6735;51.456;12.626;2023-03-14T13:27:32;3.10;;;1.07;;
13331;SDS011;6735;51.456;12.626;2023-03-14T13:30:00;2.67;;;1.10;;
13331;SDS011;6735;51.456;12.626;2023-03-14T13:32:41;2.20;;;1.30;;
13331;SDS011;6735;51.456;12.626;2023-03-14T13:35:19;1.40;;;1.00;;
13331;SDS011;6735;51.456;12.626;2023-03-14T13:37:56;2.60;;;1.17;;
13331;SDS011;6735;51.456;12.626;2023-03-14T13:40:25;2.67;;;0.90;;
13331;SDS011;6735;51.456;12.626;2023-03-14T13:43:14;1.43;;;0.80;;
13331;SDS011;6735;51.456;12.626;2023-03-14T13:48:31;1.93;;;0.73;;
13331;SDS011;6735;51.456;12.626;2023-03-14T13:51:00;4.57;;;1.27;;
13331;SDS011;6735;51.456;12.626;2023-03-14T13:53:29;1.77;;;0.70;;
13331;SDS011;6735;51.456;12.626;2023-03-14T13:55:54;4.10;;;2.20;;
13331;SDS011;6735;51.456;12.626;2023-03-14T13:58:21;2.73;;;1.30;;
13331;SDS011;6735;51.456;12.626;2023-03-14T14:00:59;2.30;;;1.10;;
13331;SDS011;6735;51.456;12.626;2023-03-14T14:03:42;1.20;;;0.83;;
13331;SDS011;6735;51.456;12.626;2023-03-14T14:06:21;1.47;;;1.37;;
13331;SDS011;6735;51.456;12.626;2023-03-14T14:08:48;1.20;;;0.73;;
13331;SDS011;6735;51.456;12.626;2023-03-14T14:11:19;1.27;;;0.70;;
13331;SDS011;6735;51.456;12.626;2023-03-14T14:14:00;1.60;;;1.00;;
13331;SDS011;6735;51.456;12.626;2023-03-14T14:16:26;3.20;;;0.90;;
13331;SDS011;6735;51.456;12.626;2023-03-14T14:18:54;3.10;;;0.70;;
13331;SDS011;6735;51.456;12.626;2023-03-14T14:21:21;0.50;;;0.50;;
13331;SDS011;6735;51.456;12.626;2023-03-14T14:23:47;0.90;;;0.63;;
13331;SDS011;6735;51.456;12.626;2023-03-14T14:26:14;0.80;;;0.80;;
13331;SDS011;6735;51.456;12.626;2023-03-14T14:28:43;0.77;;;0.70;;
13331;SDS011;6735;51.456;12.626;2023-03-14T14:33:43;1.57;;;0.60;;
13331;SDS011;6735;51.456;12.626;2023-03-14T14:36:15;2.30;;;0.80;;
13331;SDS011;6735;51.456;12.626;2023-03-14T14:38:48;1.83;;;0.70;;
13331;SDS011;6735;51.456;12.626;2023-03-14T14:41:15;0.97;;;0.60;;
13331;SDS011;6735;51.456;12.626;2023-03-14T14:43:40;0.90;;;0.90;;
13331;SDS011;6735;51.456;12.626;2023-03-14T14:46:06;0.63;;;0.63;;
13331;SDS011;6735;51.456;12.626;2023-03-14T14:48:36;0.63;;;0.63;;
13331;SDS011;6735;51.456;12.626;2023-03-14T14:51:04;0.93;;;0.93;;
13331;SDS011;6735;51.456;12.626;2023-03-14T14:53:35;1.20;;;0.73;;
13331;SDS011;6735;51.456;12.626;2023-03-14T14:56:07;2.07;;;0.67;;
13331;SDS011;6735;51.456;12.626;2023-03-14T14:58:41;1.17;;;1.00;;
13331;SDS011;6735;51.456;12.626;2023-03-14T15:01:20;1.87;;;0.90;;
13331;SDS011;6735;51.456;12.626;2023-03-14T15:03:49;1.50;;;1.07;;
13331;SDS011;6735;51.456;12.626;2023-03-14T15:06:16;1.83;;;1.10;;
13331;SDS011;6735;51.456;12.626;2023-03-14T15:08:42;1.20;;;1.10;;
13331;SDS011;6735;51.456;12.626;2023-03-14T15:11:14;1.57;;;1.10;;
13331;SDS011;6735;51.456;12.626;2023-03-14T15:13:42;0.97;;;0.87;;
13331;SDS011;6735;51.456;12.626;2023-03-14T15:16:08;2.37;;;1.17;;
13331;SDS011;6735;51.456;12.626;2023-03-14T15:18:36;7.63;;;1.90;;
13331;SDS011;6735;51.456;12.626;2023-03-14T15:21:01;3.27;;;1.90;;
13331;SDS011;6735;51.456;12.626;2023-03-14T15:23:27;3.53;;;1.87;;
13331;SDS011;6735;51.456;12.626;2023-03-14T15:25:53;2.30;;;1.90;;
13331;SDS011;6735;51.456;12.626;2023-03-14T15:28:20;4.83;;;1.50;;
13331;SDS011;6735;51.456;12.626;2023-03-14T15:30:51;3.33;;;1.70;;
13331;SDS011;6735;51.456;12.626;2023-03-14T15:33:23;1.27;;;1.17;;
13331;SDS011;6735;51.456;12.626;2023-03-14T15:35:50;2.90;;;1.87;;
13331;SDS011;6735;51.456;12.626;2023-03-14T15:38:17;1.60;;;1.47;;
13331;SDS011;6735;51.456;12.626;2023-03-14T15:40:50;1.97;;;1.50;;
13331;SDS011;6735;51.456;12.626;2023-03-14T15:43:16;1.70;;;1.60;;
13331;SDS011;6735;51.456;12.626;2023-03-14T15:45:43;1.90;;;1.80;;
13331;SDS011;6735;51.456;12.626;2023-03-14T15:48:16;1.70;;;1.60;;